Time;durP1;ratioP1;P1;durP2;ratioP2;P2;SDS_P1;SDS_P2;PMS_P1;PMS_P2;Temp;Humidity;BMP_temperature;BMP_pressure;BME280_temperature;BME280_humidity;BME280_pressure;Samples;Min_cycle;Max_cycle;Signal;HPM_P1;HPM_P2
2021/08/17 00:00:12;;;;;;;;;;;;;;;;;;5085644;28;1548;-53
2021/08/17 00:02:37;;;;;;;;;;;;;;;;;;5089519;28;1242;-54
2021/08/17 00:05:03;;;;;;;;;;;;;;;;;;5090150;28;1191;-52
2021/08/17 00:07:29;;;;;;;;;;;;;;;;;;5089446;28;1628;-53
2021/08/17 00:09:54;;;;;;;;;;;;;;;;;;5088312;28;1388;-53
2021/08/17 00:12:19;;;;;;;;;;;;;;;;;;5086328;28;1549;-53
2021/08/17 00:14:44;;;;;;;;;;;;;;;;;;5089756;28;1965;-54
2021/08/17 00:17:10;;;;;;;;;;;;;;;;;;5086991;28;1492;-53
2021/08/17 00:19:38;;;;;;;;;;;;;;;;;;5086615;28;1192;-54
2021/08/17 00:22:03;;;;;;;;;;;;;;;;;;5089481;28;1544;-53
2021/08/17 00:24:28;;;;;;;;;;;;;;;;;;5089851;28;1228;-54
2021/08/17 00:26:54;;;;;;;;;;;;;;;;;;5089260;28;1517;-51
2021/08/17 00:29:19;;;;;;;;;;;;;;;;;;5088470;28;1442;-54
2021/08/17 00:31:44;;;;;;;;;;;;;;;;;;5089233;28;1282;-53
2021/08/17 00:34:09;;;;;;;;;;;;;;;;;;5088746;28;1168;-54
2021/08/17 00:36:34;;;;;;;;;;;;;;;;;;5088701;28;1905;-53
2021/08/17 00:39:00;;;;;;;;;;;;;;;;;;5091566;28;1285;-54
2021/08/17 00:41:25;;;;;;;;;;;;;;;;;;5089340;28;1359;-53
2021/08/17 00:43:50;;;;;;;;;;;;;;;;;;5070740;28;1574;-53
2021/08/17 00:46:15;;;;;;;;;;;;;;;;;;5088927;28;1108;-53
2021/08/17 00:48:40;;;;;;;;;;;;;;;;;;5089794;28;1336;-52
2021/08/17 00:51:07;;;;;;;;;;;;;;;;;;5088823;28;1801;-53
2021/08/17 00:53:32;;;;;;;;;;;;;;;;;;5091630;28;1771;-53
2021/08/17 00:55:57;;;;;;;;;;;;;;;;;;5093878;28;1897;-53
2021/08/17 00:58:22;;;;;;;;;;;;;;;;;;5089043;28;1514;-53
2021/08/17 01:00:48;;;;;;;;;;;;;;;;;;5087718;28;1287;-53
2021/08/17 01:03:13;;;;;;;;;;;;;;;;;;5086670;28;1648;-53
2021/08/17 01:05:38;;;;;;;;;;;;;;;;;;5093511;28;1258;-53
2021/08/17 01:08:03;;;;;;;;;;;;;;;;;;5092716;28;985;-54
2021/08/17 01:10:28;;;;;;;;;;;;;;;;;;5073090;28;1517;-53
2021/08/17 01:12:54;;;;;;;;;;;;;;;;;;5092803;28;1497;-54
2021/08/17 01:15:19;;;;;;;;;;;;;;;;;;5091160;28;1965;-53
2021/08/17 01:17:44;;;;;;;;;;;;;;;;;;5093193;28;966;-53
2021/08/17 01:20:11;;;;;;;;;;;;;;;;;;5092102;28;1490;-53
2021/08/17 01:22:36;;;;;;;;;;;;;;;;;;5090554;28;1034;-54
2021/08/17 01:25:01;;;;;;;;;;;;;;;;;;5090673;28;1620;-53
2021/08/17 01:27:27;;;;;;;;;;;;;;;;;;5091950;28;1501;-54
2021/08/17 01:29:52;;;;;;;;;;;;;;;;;;5091976;28;1323;-54
2021/08/17 01:32:18;;;;;;;;;;;;;;;;;;5093521;28;1124;-54
2021/08/17 01:34:43;;;;;;;;;;;;;;;;;;5093885;28;1905;-53
2021/08/17 01:37:08;;;;;;;;;;;;;;;;;;5090172;28;1620;-53
2021/08/17 01:39:33;;;;;;;;;;;;;;;;;;5091281;28;1259;-54
2021/08/17 01:41:58;;;;;;;;;;;;;;;;;;5089628;28;1701;-54
2021/08/17 01:44:24;;;;;;;;;;;;;;;;;;5092619;28;1014;-53
2021/08/17 01:46:49;;;;;;;;;;;;;;;;;;5092061;28;1271;-53
2021/08/17 01:49:15;;;;;;;;;;;;;;;;;;5092527;28;1269;-53
2021/08/17 01:51:40;;;;;;;;;;;;;;;;;;5091593;28;1585;-53
2021/08/17 01:54:06;;;;;;;;;;;;;;;;;;5091680;28;1023;-53
2021/08/17 01:56:31;;;;;;;;;;;;;;;;;;5092296;28;1972;-53
2021/08/17 01:58:56;;;;;;;;;;;;;;;;;;5091097;28;1513;-53
2021/08/17 02:01:21;;;;;;;;;;;;;;;;;;5089480;28;1536;-52
2021/08/17 02:03:46;;;;;;;;;;;;;;;;;;5091160;28;1766;-53
2021/08/17 02:06:12;;;;;;;;;;;;;;;;;;5092384;28;1501;-53
2021/08/17 02:08:37;;;;;;;;;;;;;;;;;;5089251;28;1120;-54
2021/08/17 02:11:02;;;;;;;;;;;;;;;;;;5087143;28;1553;-53
2021/08/17 02:13:29;;;;;;;;;;;;;;;;;;5087507;28;1663;-54
2021/08/17 02:15:55;;;;;;;;;;;;;;;;;;5090244;28;1914;-55
2021/08/17 02:18:21;;;;;;;;;;;;;;;;;;5130140;22;1942;-58
2021/08/17 02:20:46;;;;;;;;;;;;;;;;;;5109558;28;1313;-58
2021/08/17 02:23:11;;;;;;;;;;;;;;;;;;5110367;28;1628;-59
2021/08/17 02:25:36;;;;;;;;;;;;;;;;;;5108577;27;1233;-59
2021/08/17 02:28:02;;;;;;;;;;;;;;;;;;5109507;27;1532;-58
2021/08/17 02:30:27;;;;;;;;;;;;;;;;;;5111518;28;1119;-59
2021/08/17 02:32:52;;;;;;;;;;;;;;;;;;5112453;27;1259;-59
2021/08/17 02:35:17;;;;;;;;;;;;;;;;;;5111823;27;1913;-58
2021/08/17 02:37:42;;;;;;;;;;;;;;;;;;5110694;27;1608;-58
2021/08/17 02:40:08;;;;;;;;;;;;;;;;;;5110672;28;1234;-59
2021/08/17 02:42:33;;;;;;;;;;;;;;;;;;5111236;27;1604;-59
2021/08/17 02:44:59;;;;;;;;;;;;;;;;;;5110507;27;1544;-56
2021/08/17 02:47:24;;;;;;;;;;;;;;;;;;5111678;27;1474;-58
2021/08/17 02:49:49;;;;;;;;;;;;;;;;;;5109412;28;1130;-58
2021/08/17 02:52:14;;;;;;;;;;;;;;;;;;5110799;27;1175;-58
2021/08/17 02:54:41;;;;;;;;;;;;;;;;;;5110976;27;1956;-55
2021/08/17 02:57:07;;;;;;;;;;;;;;;;;;5108746;27;1579;-57
2021/08/17 02:59:33;;;;;;;;;;;;;;;;;;5107560;27;1209;-59
2021/08/17 03:01:58;;;;;;;;;;;;;;;;;;5112986;27;1135;-58
2021/08/17 03:04:23;;;;;;;;;;;;;;;;;;5111990;27;1353;-58
2021/08/17 03:06:48;;;;;;;;;;;;;;;;;;5109659;27;1521;-58
2021/08/17 03:09:13;;;;;;;;;;;;;;;;;;5111087;27;1175;-58
2021/08/17 03:11:39;;;;;;;;;;;;;;;;;;5110975;28;1155;-58
2021/08/17 03:14:04;;;;;;;;;;;;;;;;;;5109269;27;1722;-57
2021/08/17 03:16:29;;;;;;;;;;;;;;;;;;5111052;27;1969;-57
2021/08/17 03:18:54;;;;;;;;;;;;;;;;;;5110018;28;1103;-58
2021/08/17 03:21:19;;;;;;;;;;;;;;;;;;5109343;28;1616;-59
2021/08/17 03:23:44;;;;;;;;;;;;;;;;;;5112934;27;1268;-59
2021/08/17 03:26:10;;;;;;;;;;;;;;;;;;5105685;27;1628;-58
2021/08/17 03:28:35;;;;;;;;;;;;;;;;;;5108487;27;1636;-58
2021/08/17 03:31:00;;;;;;;;;;;;;;;;;;5109885;27;1491;-57
2021/08/17 03:33:25;;;;;;;;;;;;;;;;;;5111237;27;1517;-58
2021/08/17 03:35:52;;;;;;;;;;;;;;;;;;5111448;27;1917;-58
2021/08/17 03:38:17;;;;;;;;;;;;;;;;;;5109599;27;1304;-58
2021/08/17 03:40:43;;;;;;;;;;;;;;;;;;5111142;27;1124;-58
2021/08/17 03:43:08;;;;;;;;;;;;;;;;;;5106719;27;1577;-57
2021/08/17 03:45:33;;;;;;;;;;;;;;;;;;5111163;27;1170;-57
2021/08/17 03:47:58;;;;;;;;;;;;;;;;;;5108557;28;1283;-58
2021/08/17 03:50:23;;;;;;;;;;;;;;;;;;5110721;28;1330;-58
2021/08/17 03:52:49;;;;;;;;;;;;;;;;;;5108549;27;1605;-58
2021/08/17 03:55:14;;;;;;;;;;;;;;;;;;5109989;27;1902;-58
2021/08/17 03:57:39;;;;;;;;;;;;;;;;;;5109038;27;1643;-59
2021/08/17 04:00:06;;;;;;;;;;;;;;;;;;5110524;28;1255;-58
2021/08/17 04:02:31;;;;;;;;;;;;;;;;;;5108648;28;1259;-58
2021/08/17 04:04:56;;;;;;;;;;;;;;;;;;5110083;27;1123;-58
2021/08/17 04:07:22;;;;;;;;;;;;;;;;;;5103955;28;1623;-57
2021/08/17 04:09:47;;;;;;;;;;;;;;;;;;5109248;28;1190;-58
2021/08/17 04:12:12;;;;;;;;;;;;;;;;;;5108219;28;1588;-57
2021/08/17 04:14:37;;;;;;;;;;;;;;;;;;5111540;28;1967;-58
2021/08/17 04:17:02;;;;;;;;;;;;;;;;;;5108493;28;1454;-58
2021/08/17 04:19:28;;;;;;;;;;;;;;;;;;5110221;27;1334;-58
2021/08/17 04:21:53;;;;;;;;;;;;;;;;;;5106618;28;1664;-57
2021/08/17 04:24:18;;;;;;;;;;;;;;;;;;5109339;28;1163;-58
2021/08/17 04:26:43;;;;;;;;;;;;;;;;;;5111186;28;1328;-56
2021/08/17 04:29:08;;;;;;;;;;;;;;;;;;5114854;27;1620;-55
2021/08/17 04:31:33;;;;;;;;;;;;;;;;;;5111268;28;1131;-58
2021/08/17 04:33:59;;;;;;;;;;;;;;;;;;5107445;27;1560;-57
2021/08/17 04:36:24;;;;;;;;;;;;;;;;;;5116292;27;1918;-57
2021/08/17 04:38:49;;;;;;;;;;;;;;;;;;5113718;27;1103;-58
2021/08/17 04:41:14;;;;;;;;;;;;;;;;;;5113695;28;1206;-58
2021/08/17 04:43:39;;;;;;;;;;;;;;;;;;5043782;27;2103;-58
2021/08/17 04:46:05;;;;;;;;;;;;;;;;;;5115030;27;1459;-58
2021/08/17 04:48:30;;;;;;;;;;;;;;;;;;5110552;28;1076;-58
2021/08/17 04:50:55;;;;;;;;;;;;;;;;;;5109891;27;1604;-57
2021/08/17 04:53:20;;;;;;;;;;;;;;;;;;5114587;27;1182;-58
2021/08/17 04:55:45;;;;;;;;;;;;;;;;;;5112004;27;1910;-58
2021/08/17 04:58:10;;;;;;;;;;;;;;;;;;5110477;27;1676;-58
2021/08/17 05:00:41;;;;;;;;;;;;;;;;;;5111935;27;1261;-56
2021/08/17 05:03:06;;;;;;;;;;;;;;;;;;5111167;27;1139;-58
2021/08/17 05:05:31;;;;;;;;;;;;;;;;;;5113555;27;1284;-58
2021/08/17 05:07:57;;;;;;;;;;;;;;;;;;5110926;27;1676;-58
2021/08/17 05:10:22;;;;;;;;;;;;;;;;;;5108834;27;1174;-58
2021/08/17 05:12:47;;;;;;;;;;;;;;;;;;5110217;27;1743;-58
2021/08/17 05:15:12;;;;;;;;;;;;;;;;;;5112655;27;1909;-58
2021/08/17 05:17:38;;;;;;;;;;;;;;;;;;5112947;27;1205;-54
2021/08/17 05:20:04;;;;;;;;;;;;;;;;;;5110045;28;1656;-58
2021/08/17 05:22:29;;;;;;;;;;;;;;;;;;5110304;28;1214;-56
2021/08/17 05:24:54;;;;;;;;;;;;;;;;;;5112705;27;1372;-58
2021/08/17 05:27:19;;;;;;;;;;;;;;;;;;5108404;27;1612;-58
2021/08/17 05:29:44;;;;;;;;;;;;;;;;;;5112079;27;1253;-58
2021/08/17 05:32:10;;;;;;;;;;;;;;;;;;5110602;28;1273;-57
2021/08/17 05:34:35;;;;;;;;;;;;;;;;;;5105284;27;1905;-58
2021/08/17 05:37:01;;;;;;;;;;;;;;;;;;5110268;27;1703;-57
2021/08/17 05:39:26;;;;;;;;;;;;;;;;;;5111761;27;1220;-58
2021/08/17 05:41:51;;;;;;;;;;;;;;;;;;5109590;28;1253;-58
2021/08/17 05:44:17;;;;;;;;;;;;;;;;;;5107580;27;1576;-58
2021/08/17 05:46:42;;;;;;;;;;;;;;;;;;5106592;27;1544;-58
2021/08/17 05:49:07;;;;;;;;;;;;;;;;;;5106714;27;1966;-57
2021/08/17 05:51:32;;;;;;;;;;;;;;;;;;5109483;27;1170;-58
2021/08/17 05:53:58;;;;;;;;;;;;;;;;;;5111117;27;1260;-58
2021/08/17 05:56:23;;;;;;;;;;;;;;;;;;5111430;28;1906;-58
2021/08/17 05:58:48;;;;;;;;;;;;;;;;;;5108310;27;1627;-58
2021/08/17 06:01:13;;;;;;;;;;;;;;;;;;5113272;27;1127;-58
2021/08/17 06:03:38;;;;;;;;;;;;;;;;;;5111353;27;1398;-58
2021/08/17 06:06:03;;;;;;;;;;;;;;;;;;5110701;28;1577;-58
2021/08/17 06:08:29;;;;;;;;;;;;;;;;;;5112639;27;1253;-58
2021/08/17 06:10:54;;;;;;;;;;;;;;;;;;5113001;27;1111;-59
2021/08/17 06:13:19;;;;;;;;;;;;;;;;;;5109387;27;1639;-57
2021/08/17 06:15:44;;;;;;;;;;;;;;;;;;5111433;28;1905;-58
2021/08/17 06:18:09;;;;;;;;;;;;;;;;;;5112078;27;1376;-58
2021/08/17 06:20:35;;;;;;;;;;;;;;;;;;5113561;27;1444;-58
2021/08/17 06:23:00;;;;;;;;;;;;;;;;;;5111288;27;1668;-58
2021/08/17 06:25:26;;;;;;;;;;;;;;;;;;5111106;28;1139;-58
2021/08/17 06:27:51;;;;;;;;;;;;;;;;;;5110461;28;1573;-58
2021/08/17 06:30:16;;;;;;;;;;;;;;;;;;5113328;27;1550;-58
2021/08/17 06:32:41;;;;;;;;;;;;;;;;;;5109506;27;1777;-58
2021/08/17 06:35:07;;;;;;;;;;;;;;;;;;5111795;28;1969;-58
2021/08/17 06:37:32;;;;;;;;;;;;;;;;;;5112300;27;1635;-58
2021/08/17 06:39:57;;;;;;;;;;;;;;;;;;5111698;28;939;-58
2021/08/17 06:42:22;;;;;;;;;;;;;;;;;;5108971;28;1564;-57
2021/08/17 06:44:48;;;;;;;;;;;;;;;;;;5110977;27;1851;-57
2021/08/17 06:47:13;;;;;;;;;;;;;;;;;;5112282;27;1289;-58
2021/08/17 06:49:38;;;;;;;;;;;;;;;;;;5109271;28;1104;-58
2021/08/17 06:52:03;;;;;;;;;;;;;;;;;;5110006;27;1460;-58
2021/08/17 06:54:28;;;;;;;;;;;;;;;;;;5111052;28;1213;-58
2021/08/17 06:56:53;;;;;;;;;;;;;;;;;;5110941;27;1959;-58
2021/08/17 06:59:19;;;;;;;;;;;;;;;;;;5109803;27;2067;-58
2021/08/17 07:01:44;;;;;;;;;;;;;;;;;;5111276;28;1230;-58
2021/08/17 07:04:09;;;;;;;;;;;;;;;;;;5112709;27;1599;-58
2021/08/17 07:06:35;;;;;;;;;;;;;;;;;;5109535;28;1616;-58
2021/08/17 07:09:02;;;;;;;;;;;;;;;;;;5108483;28;1461;-58
2021/08/17 07:11:27;;;;;;;;;;;;;;;;;;5109260;28;1012;-58
2021/08/17 07:13:52;;;;;;;;;;;;;;;;;;5109405;28;1568;-58
2021/08/17 07:16:17;;;;;;;;;;;;;;;;;;5111556;27;1898;-58
2021/08/17 07:18:42;;;;;;;;;;;;;;;;;;5107262;27;1954;-57
2021/08/17 07:21:08;;;;;;;;;;;;;;;;;;5111152;27;1265;-57
2021/08/17 07:23:33;;;;;;;;;;;;;;;;;;5109587;28;1233;-58
2021/08/17 07:25:58;;;;;;;;;;;;;;;;;;5108428;28;1305;-57
2021/08/17 07:28:23;;;;;;;;;;;;;;;;;;5107189;28;1537;-58
2021/08/17 07:30:48;;;;;;;;;;;;;;;;;;5110628;28;1265;-58
2021/08/17 07:33:14;;;;;;;;;;;;;;;;;;5107319;27;1271;-58
2021/08/17 07:35:39;;;;;;;;;;;;;;;;;;5109254;27;1918;-58
2021/08/17 07:38:04;;;;;;;;;;;;;;;;;;5109262;28;1287;-58
2021/08/17 07:40:29;;;;;;;;;;;;;;;;;;5110248;27;1221;-58
2021/08/17 07:42:54;;;;;;;;;;;;;;;;;;5109220;27;1575;-58
2021/08/17 07:45:20;;;;;;;;;;;;;;;;;;5109700;27;1363;-58
2021/08/17 07:47:45;;;;;;;;;;;;;;;;;;5108751;28;1424;-58
2021/08/17 07:50:10;;;;;;;;;;;;;;;;;;5109367;28;1186;-58
2021/08/17 07:52:36;;;;;;;;;;;;;;;;;;5108016;28;1589;-58
2021/08/17 07:55:05;;;;;;;;;;;;;;;;;;5110881;27;1966;-57
2021/08/17 07:57:30;;;;;;;;;;;;;;;;;;5108205;28;1565;-58
2021/08/17 07:59:55;;;;;;;;;;;;;;;;;;5110227;27;1256;-58
2021/08/17 08:02:20;;;;;;;;;;;;;;;;;;5105722;28;1525;-58
2021/08/17 08:04:46;;;;;;;;;;;;;;;;;;5109949;27;1208;-58
2021/08/17 08:07:11;;;;;;;;;;;;;;;;;;5109644;28;1370;-58
2021/08/17 08:09:36;;;;;;;;;;;;;;;;;;5110443;28;1289;-58
2021/08/17 08:12:01;;;;;;;;;;;;;;;;;;5107523;27;1743;-57
2021/08/17 08:14:26;;;;;;;;;;;;;;;;;;5109370;28;1455;-58
2021/08/17 08:16:52;;;;;;;;;;;;;;;;;;5110332;28;1902;-58
2021/08/17 08:19:18;;;;;;;;;;;;;;;;;;5109433;28;1459;-57
2021/08/17 08:21:43;;;;;;;;;;;;;;;;;;5109213;28;1633;-58
2021/08/17 08:24:08;;;;;;;;;;;;;;;;;;5109415;28;1170;-58
2021/08/17 08:26:33;;;;;;;;;;;;;;;;;;5107604;28;1552;-58
2021/08/17 08:28:58;;;;;;;;;;;;;;;;;;5106255;28;2088;-58
2021/08/17 08:31:24;;;;;;;;;;;;;;;;;;5109911;28;1187;-58
2021/08/17 08:33:49;;;;;;;;;;;;;;;;;;5108713;28;1399;-57
2021/08/17 08:36:14;;;;;;;;;;;;;;;;;;5107913;28;1980;-58
2021/08/17 08:38:39;;;;;;;;;;;;;;;;;;5109898;28;1205;-57
2021/08/17 08:41:04;;;;;;;;;;;;;;;;;;5110757;28;1221;-58
2021/08/17 08:43:29;;;;;;;;;;;;;;;;;;5107894;28;1660;-57
2021/08/17 08:45:55;;;;;;;;;;;;;;;;;;5109669;28;1265;-57
2021/08/17 08:48:22;;;;;;;;;;;;;;;;;;5107989;28;1461;-57
2021/08/17 08:50:47;;;;;;;;;;;;;;;;;;5108645;28;1517;-57
2021/08/17 08:53:13;;;;;;;;;;;;;;;;;;5106981;28;1498;-58
2021/08/17 08:55:38;;;;;;;;;;;;;;;;;;5109132;28;1905;-57
2021/08/17 08:58:03;;;;;;;;;;;;;;;;;;5106718;28;1592;-57
2021/08/17 09:00:28;;;;;;;;;;;;;;;;;;5109552;28;1139;-58
2021/08/17 09:02:54;;;;;;;;;;;;;;;;;;5108934;28;1259;-58
2021/08/17 09:05:21;;;;;;;;;;;;;;;;;;5107612;28;1561;-57
2021/08/17 09:07:46;;;;;;;;;;;;;;;;;;5109476;28;1288;-56
2021/08/17 09:10:15;;;;;;;;;;;;;;;;;;5106627;28;1490;-57
2021/08/17 09:12:41;;;;;;;;;;;;;;;;;;5108821;28;1549;-58
2021/08/17 09:15:07;;;;;;;;;;;;;;;;;;5111438;27;1914;-57
2021/08/17 09:17:32;;;;;;;;;;;;;;;;;;5113791;27;1285;-58
2021/08/17 09:19:58;;;;;;;;;;;;;;;;;;5109721;28;1517;-57
2021/08/17 09:22:23;;;;;;;;;;;;;;;;;;5113022;27;1143;-57
2021/08/17 09:24:52;;;;;;;;;;;;;;;;;;5110645;28;1613;-54
2021/08/17 09:27:18;;;;;;;;;;;;;;;;;;5109752;27;1525;-58
2021/08/17 09:29:45;;;;;;;;;;;;;;;;;;5108885;27;1548;-56
2021/08/17 09:32:20;;;;;;;;;;;;;;;;;;5111681;28;1174;-58
2021/08/17 09:35:04;;;;;;;;;;;;;;;;;;5110928;28;1965;-58
2021/08/17 09:37:30;;;;;;;;;;;;;;;;;;5109519;28;1691;-58
2021/08/17 09:39:56;;;;;;;;;;;;;;;;;;5109689;27;1680;-58
2021/08/17 09:42:30;;;;;;;;;;;;;;;;;;5111488;28;1620;-58
2021/08/17 09:45:04;;;;;;;;;;;;;;;;;;5111991;27;1450;-58
2021/08/17 09:47:30;;;;;;;;;;;;;;;;;;5110460;27;1382;-58
2021/08/17 09:49:55;;;;;;;;;;;;;;;;;;5107552;27;1515;-58
2021/08/17 09:52:20;;;;;;;;;;;;;;;;;;5107865;28;1478;-54
2021/08/17 09:54:46;;;;;;;;;;;;;;;;;;5110593;27;2240;-58
2021/08/17 09:57:11;;;;;;;;;;;;;;;;;;5110977;27;1501;-57
2021/08/17 09:59:37;;;;;;;;;;;;;;;;;;5112996;27;1246;-58
2021/08/17 10:02:03;;;;;;;;;;;;;;;;;;5111604;28;1187;-57
2021/08/17 10:04:28;;;;;;;;;;;;;;;;;;5113567;27;1265;-57
2021/08/17 10:06:54;;;;;;;;;;;;;;;;;;5110463;28;2214;-58
2021/08/17 10:09:19;;;;;;;;;;;;;;;;;;5108313;27;1198;-55
2021/08/17 10:11:45;;;;;;;;;;;;;;;;;;5109330;27;1124;-56
2021/08/17 10:14:10;;;;;;;;;;;;;;;;;;5107846;28;1573;-57
2021/08/17 10:16:35;;;;;;;;;;;;;;;;;;5108870;28;1903;-55
2021/08/17 10:19:00;;;;;;;;;;;;;;;;;;5108346;27;1450;-57
2021/08/17 10:21:25;;;;;;;;;;;;;;;;;;5106961;27;1521;-56
2021/08/17 10:23:51;;;;;;;;;;;;;;;;;;5104044;27;1681;-57
2021/08/17 10:26:25;;;;;;;;;;;;;;;;;;5109202;27;1302;-57
2021/08/17 10:28:50;;;;;;;;;;;;;;;;;;5106880;27;1596;-58
2021/08/17 10:31:17;;;;;;;;;;;;;;;;;;5108612;28;1210;-56
2021/08/17 10:33:49;;;;;;;;;;;;;;;;;;5106898;28;1157;-57
2021/08/17 10:36:32;;;;;;;;;;;;;;;;;;5105087;27;2329;-57
2021/08/17 10:38:58;;;;;;;;;;;;;;;;;;5107794;27;1379;-57
2021/08/17 10:41:25;;;;;;;;;;;;;;;;;;5109516;28;1163;-57
2021/08/17 10:43:50;;;;;;;;;;;;;;;;;;5103871;28;1577;-57
2021/08/17 10:46:16;;;;;;;;;;;;;;;;;;5110139;27;1311;-56
2021/08/17 10:48:45;;;;;;;;;;;;;;;;;;5108806;28;1166;-56
2021/08/17 10:51:10;;;;;;;;;;;;;;;;;;5106241;27;1532;-57
2021/08/17 10:53:36;;;;;;;;;;;;;;;;;;5105646;27;1127;-57
2021/08/17 10:56:24;;;;;;;;;;;;;;;;;;5103755;27;1969;-54
2021/08/17 10:58:50;;;;;;;;;;;;;;;;;;5103218;27;1894;-56
2021/08/17 11:01:30;;;;;;;;;;;;;;;;;;5109175;27;1166;-58
2021/08/17 11:03:56;;;;;;;;;;;;;;;;;;5109205;27;1523;-55
2021/08/17 11:06:40;;;;;;;;;;;;;;;;;;5108596;27;1382;-55
2021/08/17 11:09:15;;;;;;;;;;;;;;;;;;5107738;27;1561;-56
2021/08/17 11:11:41;;;;;;;;;;;;;;;;;;5108781;28;1186;-57
2021/08/17 11:14:06;;;;;;;;;;;;;;;;;;5106379;28;1600;-57
2021/08/17 11:16:32;;;;;;;;;;;;;;;;;;5108867;27;1905;-57
2021/08/17 11:18:58;;;;;;;;;;;;;;;;;;5110938;27;1316;-55
2021/08/17 11:21:38;;;;;;;;;;;;;;;;;;5106248;28;1576;-57
2021/08/17 11:24:07;;;;;;;;;;;;;;;;;;5107267;28;1367;-57
2021/08/17 11:26:32;;;;;;;;;;;;;;;;;;5107873;28;1243;-56
2021/08/17 11:28:57;;;;;;;;;;;;;;;;;;5107299;27;1593;-55
2021/08/17 11:31:23;;;;;;;;;;;;;;;;;;5108294;27;1253;-56
2021/08/17 11:33:48;;;;;;;;;;;;;;;;;;5107125;27;1387;-57
2021/08/17 11:36:21;;;;;;;;;;;;;;;;;;5107093;28;1910;-57
2021/08/17 11:38:46;;;;;;;;;;;;;;;;;;5108571;28;1178;-57
2021/08/17 11:41:27;;;;;;;;;;;;;;;;;;5110305;27;1375;-57
2021/08/17 11:44:08;;;;;;;;;;;;;;;;;;5106973;28;1620;-57
2021/08/17 11:46:33;;;;;;;;;;;;;;;;;;5106591;28;1592;-57
2021/08/17 11:49:17;;;;;;;;;;;;;;;;;;5109978;28;1119;-57
2021/08/17 11:51:43;;;;;;;;;;;;;;;;;;5109031;27;1612;-56
2021/08/17 11:54:08;;;;;;;;;;;;;;;;;;5109108;28;1215;-57
2021/08/17 11:56:33;;;;;;;;;;;;;;;;;;5105004;28;1906;-58
2021/08/17 11:58:58;;;;;;;;;;;;;;;;;;5107273;28;1652;-56
2021/08/17 12:01:23;;;;;;;;;;;;;;;;;;5107408;27;1489;-57
2021/08/17 12:03:49;;;;;;;;;;;;;;;;;;5109503;28;1099;-57
2021/08/17 12:06:14;;;;;;;;;;;;;;;;;;5108815;28;1466;-57
2021/08/17 12:08:39;;;;;;;;;;;;;;;;;;5108324;28;1427;-54
2021/08/17 12:11:05;;;;;;;;;;;;;;;;;;5108000;28;1241;-58
2021/08/17 12:13:36;;;;;;;;;;;;;;;;;;5107249;28;1595;-58
2021/08/17 12:16:01;;;;;;;;;;;;;;;;;;5107708;28;1890;-57
2021/08/17 12:18:31;;;;;;;;;;;;;;;;;;5110471;28;1207;-57
2021/08/17 12:20:56;;;;;;;;;;;;;;;;;;5111479;28;1123;-58
2021/08/17 12:23:22;;;;;;;;;;;;;;;;;;5109304;28;1556;-57
2021/08/17 12:25:47;;;;;;;;;;;;;;;;;;5110238;28;1115;-56
2021/08/17 12:28:25;;;;;;;;;;;;;;;;;;5107807;28;1529;-58
2021/08/17 12:31:04;;;;;;;;;;;;;;;;;;5109691;28;1215;-57
2021/08/17 12:33:29;;;;;;;;;;;;;;;;;;5108293;28;1390;-57
2021/08/17 12:35:55;;;;;;;;;;;;;;;;;;5109115;28;1975;-57
2021/08/17 12:38:21;;;;;;;;;;;;;;;;;;5107623;28;1513;-57
2021/08/17 12:40:50;;;;;;;;;;;;;;;;;;5111466;28;1254;-58
2021/08/17 12:43:22;;;;;;;;;;;;;;;;;;5105799;28;1567;-57
2021/08/17 12:45:47;;;;;;;;;;;;;;;;;;5107928;28;1116;-57
2021/08/17 12:48:13;;;;;;;;;;;;;;;;;;5110433;28;1299;-57
2021/08/17 12:50:39;;;;;;;;;;;;;;;;;;5113957;27;1505;-57
2021/08/17 12:53:04;;;;;;;;;;;;;;;;;;5110912;27;1115;-57
2021/08/17 12:55:31;;;;;;;;;;;;;;;;;;5112477;27;1961;-57
2021/08/17 12:57:56;;;;;;;;;;;;;;;;;;5111859;28;1628;-57
2021/08/17 13:00:22;;;;;;;;;;;;;;;;;;5115381;27;1370;-58
2021/08/17 13:02:48;;;;;;;;;;;;;;;;;;5112324;28;1174;-57
2021/08/17 13:05:13;;;;;;;;;;;;;;;;;;5113308;27;1145;-57
2021/08/17 13:07:38;;;;;;;;;;;;;;;;;;5112411;27;1557;-58
2021/08/17 13:10:04;;;;;;;;;;;;;;;;;;5114288;27;1252;-57
2021/08/17 13:12:30;;;;;;;;;;;;;;;;;;5111036;28;1557;-57
2021/08/17 13:14:55;;;;;;;;;;;;;;;;;;5114380;27;1905;-57
2021/08/17 13:17:20;;;;;;;;;;;;;;;;;;5112403;28;1154;-58
2021/08/17 13:19:45;;;;;;;;;;;;;;;;;;5112777;27;1323;-58
2021/08/17 13:22:11;;;;;;;;;;;;;;;;;;5111258;28;1649;-57
2021/08/17 13:24:36;;;;;;;;;;;;;;;;;;5110799;28;1380;-57
2021/08/17 13:27:01;;;;;;;;;;;;;;;;;;5111360;28;1600;-57
2021/08/17 13:29:26;;;;;;;;;;;;;;;;;;5111464;28;1111;-57
2021/08/17 13:31:52;;;;;;;;;;;;;;;;;;5113110;27;1374;-57
2021/08/17 13:34:17;;;;;;;;;;;;;;;;;;5112632;28;1123;-57
2021/08/17 13:36:42;;;;;;;;;;;;;;;;;;5110964;27;1973;-58
2021/08/17 13:39:07;;;;;;;;;;;;;;;;;;5112740;28;1063;-57
2021/08/17 13:41:32;;;;;;;;;;;;;;;;;;5112957;27;1123;-58
2021/08/17 13:43:58;;;;;;;;;;;;;;;;;;5112292;27;1554;-58
2021/08/17 13:46:23;;;;;;;;;;;;;;;;;;5114212;27;1243;-57
2021/08/17 13:48:48;;;;;;;;;;;;;;;;;;5112900;27;1439;-57
2021/08/17 13:51:14;;;;;;;;;;;;;;;;;;5110598;28;1631;-58
2021/08/17 13:53:39;;;;;;;;;;;;;;;;;;5112068;27;1304;-57
2021/08/17 13:56:04;;;;;;;;;;;;;;;;;;5111789;28;1973;-58
2021/08/17 13:58:29;;;;;;;;;;;;;;;;;;5109008;27;1950;-57
2021/08/17 14:00:54;;;;;;;;;;;;;;;;;;5111391;28;1116;-57
2021/08/17 14:03:20;;;;;;;;;;;;;;;;;;5112044;27;1135;-58
2021/08/17 14:05:48;;;;;;;;;;;;;;;;;;5112193;27;1610;-57
2021/08/17 14:08:14;;;;;;;;;;;;;;;;;;5110664;28;1372;-58
2021/08/17 14:10:39;;;;;;;;;;;;;;;;;;5111129;27;1287;-58
2021/08/17 14:13:04;;;;;;;;;;;;;;;;;;5108762;27;1521;-57
2021/08/17 14:15:29;;;;;;;;;;;;;;;;;;5110273;27;1906;-57
2021/08/17 14:17:54;;;;;;;;;;;;;;;;;;5107325;22;1518;-88
2021/08/17 14:20:20;;;;;;;;;;;;;;;;;;5089900;28;1426;-89
2021/08/17 14:22:45;;;;;;;;;;;;;;;;;;5091725;28;1287;-89
2021/08/17 14:25:10;;;;;;;;;;;;;;;;;;5090873;28;1675;-89
2021/08/17 14:27:35;;;;;;;;;;;;;;;;;;5089888;28;1580;-89
2021/08/17 14:30:01;;;;;;;;;;;;;;;;;;5072176;28;1068;-88
2021/08/17 14:32:26;;;;;;;;;;;;;;;;;;5089270;28;1287;-89
2021/08/17 14:34:52;;;;;;;;;;;;;;;;;;5073477;28;2001;-89
2021/08/17 14:37:17;;;;;;;;;;;;;;;;;;5090998;28;1617;-88
2021/08/17 14:39:42;;;;;;;;;;;;;;;;;;5092868;28;1239;-89
2021/08/17 14:42:07;;;;;;;;;;;;;;;;;;5087748;28;1641;-89
2021/08/17 14:44:32;;;;;;;;;;;;;;;;;;5092380;28;1164;-89
2021/08/17 14:46:59;;;;;;;;;;;;;;;;;;5091759;28;1290;-89
2021/08/17 14:49:24;;;;;;;;;;;;;;;;;;5092679;28;1293;-88
2021/08/17 14:51:49;;;;;;;;;;;;;;;;;;5089783;28;1374;-89
2021/08/17 14:54:14;;;;;;;;;;;;;;;;;;5090350;28;1743;-88
2021/08/17 14:56:40;;;;;;;;;;;;;;;;;;5089232;28;1909;-89
2021/08/17 14:59:05;;;;;;;;;;;;;;;;;;5089638;28;1486;-89
2021/08/17 15:01:30;;;;;;;;;;;;;;;;;;5070582;28;1603;-88
2021/08/17 15:03:56;;;;;;;;;;;;;;;;;;5091960;28;1280;-89
2021/08/17 15:06:21;;;;;;;;;;;;;;;;;;5091542;28;1191;-89
2021/08/17 15:08:46;;;;;;;;;;;;;;;;;;5091209;28;1165;-89
2021/08/17 15:11:12;;;;;;;;;;;;;;;;;;5068236;28;1573;-88
2021/08/17 15:13:37;;;;;;;;;;;;;;;;;;5089665;28;1565;-89
2021/08/17 15:16:02;;;;;;;;;;;;;;;;;;5089216;28;1972;-89
2021/08/17 15:18:27;;;;;;;;;;;;;;;;;;5086758;28;1391;-89
2021/08/17 15:20:52;;;;;;;;;;;;;;;;;;5088725;28;1266;-89
2021/08/17 15:23:18;;;;;;;;;;;;;;;;;;5090440;28;1337;-89
2021/08/17 15:25:43;;;;;;;;;;;;;;;;;;5087665;28;1558;-87
2021/08/17 15:28:08;;;;;;;;;;;;;;;;;;5087896;28;1641;-88
2021/08/17 15:30:33;;;;;;;;;;;;;;;;;;5088536;28;1581;-86
2021/08/17 15:32:59;;;;;;;;;;;;;;;;;;5089315;28;1344;-87
2021/08/17 15:35:24;;;;;;;;;;;;;;;;;;5090736;28;1967;-87
2021/08/17 15:37:52;;;;;;;;;;;;;;;;;;5088018;28;1104;-87
2021/08/17 15:40:17;;;;;;;;;;;;;;;;;;5089331;28;1695;-87
2021/08/17 15:42:43;;;;;;;;;;;;;;;;;;5089779;28;1477;-87
2021/08/17 15:45:09;;;;;;;;;;;;;;;;;;5071740;28;1220;-87
2021/08/17 15:47:34;;;;;;;;;;;;;;;;;;5090256;28;1084;-87
2021/08/17 15:50:00;;;;;;;;;;;;;;;;;;5090944;28;962;-87
2021/08/17 15:52:25;;;;;;;;;;;;;;;;;;5072214;28;1535;-88
2021/08/17 15:54:50;;;;;;;;;;;;;;;;;;5092989;28;1222;-86
2021/08/17 15:57:16;;;;;;;;;;;;;;;;;;5070703;28;1906;-88
2021/08/17 15:59:43;;;;;;;;;;;;;;;;;;5090479;28;1210;-88
2021/08/17 16:02:08;;;;;;;;;;;;;;;;;;5070703;28;1280;-88
2021/08/17 16:04:33;;;;;;;;;;;;;;;;;;5089320;28;1223;-87
2021/08/17 16:06:58;;;;;;;;;;;;;;;;;;5088386;28;1513;-88
2021/08/17 16:09:23;;;;;;;;;;;;;;;;;;5090539;28;1093;-89
2021/08/17 16:11:48;;;;;;;;;;;;;;;;;;5088964;28;1325;-89
2021/08/17 16:14:14;;;;;;;;;;;;;;;;;;5088772;28;1608;-88
2021/08/17 16:16:39;;;;;;;;;;;;;;;;;;5087647;28;1910;-88
2021/08/17 16:19:05;;;;;;;;;;;;;;;;;;5089446;28;1069;-87
2021/08/17 16:21:30;;;;;;;;;;;;;;;;;;5066404;28;1570;-88
2021/08/17 16:23:56;;;;;;;;;;;;;;;;;;5063240;28;1586;-87
2021/08/17 16:26:23;;;;;;;;;;;;;;;;;;5088691;28;1201;-88
2021/08/17 16:28:48;;;;;;;;;;;;;;;;;;5088396;28;1666;-87
2021/08/17 16:31:13;;;;;;;;;;;;;;;;;;5086402;28;1325;-88
2021/08/17 16:33:38;;;;;;;;;;;;;;;;;;5089881;28;1288;-87
2021/08/17 16:36:04;;;;;;;;;;;;;;;;;;5071074;28;1989;-87
2021/08/17 16:38:29;;;;;;;;;;;;;;;;;;5088914;28;1727;-88
2021/08/17 16:40:55;;;;;;;;;;;;;;;;;;5089204;28;1454;-88
2021/08/17 16:43:20;;;;;;;;;;;;;;;;;;5086575;28;1576;-88
2021/08/17 16:45:46;;;;;;;;;;;;;;;;;;5088936;28;1116;-88
2021/08/17 16:48:11;;;;;;;;;;;;;;;;;;5087903;28;1437;-87
2021/08/17 16:50:37;;;;;;;;;;;;;;;;;;5090345;28;1631;-88
2021/08/17 16:53:02;;;;;;;;;;;;;;;;;;5089199;28;1333;-88